Home   Weather   Northfield   Past weeks
Flag for USA

Past Weather in Northfield, Minnesota, USA — Yesterday and Last 2 Weeks

Currently: 30 °F. Ice fog. (Weather station: Faribault Municipal, USA). See more current weather

Past Weather in Northfield — Graph

°F

Northfield Temperature Yesterday

Maximum temperature yesterday: 46 °F (at 2:55 pm)
Minimum temperature yesterday: 28 °F (at 8:55 pm)
Average temperature yesterday: 36 °F

High & Low Weather Summary for the Past Weeks

 TemperatureHumidityPressure
High54 °F (Feb 6, 2:15 pm)100% (Feb 12, 6:35 am)30.29 "Hg (Feb 12, 6:35 am)
Low5 °F (Feb 17, 12:15 am)48% (Feb 11, 1:15 pm)29.32 "Hg (Feb 8, 2:15 pm)
Average30 °F76%29.97 "Hg
* Reported Feb 6 7:15 am — Feb 21 7:35 am, Northfield. Weather by CustomWeather, © 2024

Note: Actual official high and low records may vary slightly from our data, if they occured in-between our weather recording intervals... More about our weather records

Northfield Weather History for the Previous 24 Hours

Scroll right to see more
 ConditionsComfort  
Time TempWeatherWind HumidityBarometerVisibility
7:35 am
Wed, Feb 21
23 °FIce fog.No wind100%29.93 "Hg4 mi
7:15 am23 °FIce fog.3 mph100%29.93 "Hg2 mi
6:55 am23 °FIce fog.No wind93%29.91 "Hg4 mi
6:36 am23 °FIce fog.No wind100%29.92 "Hg4 mi
5:55 am23 °FIce fog.No wind100%29.93 "Hg1 mi
5:35 am25 °FIce fog.No wind100%29.93 "Hg1 mi
5:15 am25 °FIce fog.No wind100%29.92 "Hg4 mi
4:55 am25 °FIce fog.No wind93%29.92 "Hg4 mi
4:35 am23 °FIce fog.No wind100%29.92 "Hg3 mi
4:15 am27 °FIce fog.No wind100%29.92 "Hg2 mi
3:55 am28 °FIce fog.No wind100%29.92 "Hg4 mi
3:35 am28 °FIce fog.3 mph93%29.92 "Hg5 mi
3:15 am28 °FIce fog.No wind100%29.91 "Hg5 mi
2:55 am27 °FIce fog.3 mph100%29.91 "Hg5 mi
2:35 am27 °FIce fog.No wind100%29.92 "Hg5 mi
1:55 am27 °FClear.3 mph100%29.92 "Hg7 mi
1:35 am27 °FClear.No wind100%29.92 "Hg7 mi
1:15 am27 °FClear.No wind100%29.92 "Hg7 mi
12:55 am27 °FClear.3 mph100%29.93 "Hg7 mi
12:35 am30 °FClear.No wind100%29.93 "Hg10 mi
12:15 am28 °FClear.No wind93%29.93 "Hg7 mi
11:55 pm
Tue, Feb 20
28 °FClear.No wind93%29.94 "Hg7 mi
11:35 pm28 °FClear.No wind100%29.94 "Hg7 mi
11:15 pm28 °FClear.No wind100%29.95 "Hg10 mi
10:55 pm28 °FClear.No wind100%29.95 "Hg10 mi
10:35 pm30 °FClear.No wind93%29.96 "Hg10 mi
10:15 pm28 °FClear.No wind100%29.96 "Hg10 mi
9:55 pm28 °FClear.No wind100%29.96 "Hg10 mi
9:35 pm28 °FClear.No wind100%29.96 "Hg10 mi
9:15 pm30 °FClear.No wind93%29.96 "Hg10 mi
8:55 pm28 °FClear.No wind100%29.96 "Hg10 mi
8:35 pm30 °FClear.No wind93%29.95 "Hg10 mi
8:15 pm30 °FClear.No wind93%29.96 "Hg10 mi
7:55 pm32 °FClear.No wind93%29.96 "Hg10 mi
7:35 pm30 °FClear.No wind93%29.97 "Hg10 mi
7:15 pm32 °FClear.No wind87%29.97 "Hg10 mi
6:55 pm36 °FClear.No wind81%29.98 "Hg10 mi
5:35 pm45 °FSunny.No wind66%29.96 "Hg10 mi
5:15 pm45 °FSunny.No wind61%29.96 "Hg10 mi
4:55 pm45 °FSunny.3 mph61%29.96 "Hg10 mi
4:35 pm45 °FSunny.3 mph61%29.95 "Hg10 mi
4:15 pm46 °FSunny.3 mph62%29.95 "Hg10 mi
3:55 pm46 °FSunny.5 mph62%29.96 "Hg10 mi
3:35 pm46 °FSunny.6 mph62%29.96 "Hg10 mi
3:15 pm46 °FSunny.9 mph62%29.96 "Hg10 mi
2:55 pm46 °FSunny.8 mph62%29.96 "Hg10 mi
2:35 pm45 °FSunny.8 mph66%29.96 "Hg10 mi
2:15 pm45 °FSunny.10 mph66%29.97 "Hg10 mi
1:35 pm43 °FSunny.5 mph71%29.96 "Hg10 mi
1:15 pm43 °FSunny.7 mph71%29.96 "Hg10 mi
12:55 pm43 °FScattered clouds.9 mph71%29.97 "Hg10 mi
12:35 pm43 °FSunny.7 mph71%29.98 "Hg10 mi
12:15 pm43 °FSunny.7 mph71%29.98 "Hg10 mi
11:55 am41 °FSunny.8 mph76%29.99 "Hg10 mi
11:35 am39 °FSunny.7 mph75%29.99 "Hg10 mi
11:15 am39 °FSunny.9 mph75%29.99 "Hg10 mi
10:55 am39 °FSunny.7 mph75%30.00 "Hg10 mi
10:35 am37 °FSunny.7 mph81%30.00 "Hg10 mi
10:15 am37 °FSunny.5 mph75%30.00 "Hg10 mi
9:55 am36 °FSunny.5 mph81%30.00 "Hg10 mi
9:35 am36 °FSunny.6 mph81%30.00 "Hg10 mi
9:15 am34 °FSunny.7 mph87%29.99 "Hg10 mi
Weather by CustomWeather, © 2024

See weather overview